createdAt,value
2018-05-17T00:02:22.234Z,101049.14
2018-05-17T00:05:27.456Z,101056.05
2018-05-17T00:08:32.668Z,101060.91
2018-05-17T00:11:37.897Z,101055.09
2018-05-17T00:14:43.846Z,101056.33
2018-05-17T00:17:50.520Z,101060.90
2018-05-17T00:20:56.355Z,101055.61
2018-05-17T00:24:01.572Z,101061.82
2018-05-17T00:27:08.739Z,101066.73
2018-05-17T00:30:13.967Z,101069.03
2018-05-17T00:33:19.819Z,101059.03
2018-05-17T00:36:25.238Z,101063.52
2018-05-17T00:39:31.286Z,101065.13
2018-05-17T00:42:37.421Z,101067.69
2018-05-17T00:45:44.473Z,101065.95
2018-05-17T00:48:51.273Z,101069.35
2018-05-17T00:51:56.494Z,101068.25
2018-05-17T00:55:01.708Z,101064.20
2018-05-17T00:58:07.861Z,101055.98
2018-05-17T01:01:13.108Z,101054.83
2018-05-17T01:04:19.422Z,101051.28
2018-05-17T01:07:25.217Z,101047.41
2018-05-17T01:10:30.164Z,101048.70
2018-05-17T01:13:36.317Z,101051.93
2018-05-17T01:16:41.530Z,101047.47
2018-05-17T01:19:47.965Z,101050.14
2018-05-17T01:22:53.219Z,101058.23
2018-05-17T01:25:59.198Z,101054.81
2018-05-17T01:29:05.310Z,101058.11
2018-05-17T01:32:10.745Z,101061.39
2018-05-17T01:35:16.669Z,101064.64
2018-05-17T01:38:25.947Z,101067.34
2018-05-17T01:41:31.170Z,101064.80
2018-05-17T01:44:37.005Z,101062.20
2018-05-17T01:47:42.754Z,101064.84
2018-05-17T01:50:48.800Z,101057.95
2018-05-17T01:53:54.939Z,101049.02
2018-05-17T01:57:00.151Z,101057.92
2018-05-17T02:00:05.702Z,101053.70
2018-05-17T02:03:11.016Z,101056.24
2018-05-17T02:06:17.196Z,101058.27
2018-05-17T02:09:23.015Z,101063.06
2018-05-17T02:12:27.951Z,101054.95
2018-05-17T02:15:34.098Z,101061.41
2018-05-17T02:18:39.371Z,101059.83
2018-05-17T02:21:44.867Z,101058.78
2018-05-17T03:01:49.689Z,101044.67
2018-05-17T03:04:55.148Z,101048.41
2018-05-17T03:08:00.381Z,101046.78
2018-05-17T03:11:06.157Z,101045.79
2018-05-17T03:14:12.219Z,101040.51
2018-05-17T03:17:17.423Z,101036.90
2018-05-17T03:20:23.232Z,101036.77
2018-05-17T03:23:28.457Z,101045.95
2018-05-17T03:26:34.605Z,101043.70
2018-05-17T03:29:39.812Z,101049.72
2018-05-17T03:32:45.557Z,101043.63
2018-05-17T03:35:50.763Z,101048.69
2018-05-17T03:38:56.793Z,101049.92
2018-05-17T03:42:02.908Z,101039.93
2018-05-17T03:45:08.338Z,101051.97
2018-05-17T03:48:14.097Z,101042.16
2018-05-17T03:51:19.315Z,101037.63
2018-05-17T03:54:25.437Z,101043.52
2018-05-17T03:57:32.176Z,101044.16
2018-05-17T04:00:49.000Z,101041.87
2018-05-17T04:04:05.969Z,101040.16
2018-05-17T04:07:11.545Z,101037.13
2018-05-17T04:10:16.498Z,101044.20
2018-05-17T04:13:21.701Z,101036.80
2018-05-17T04:16:28.743Z,101039.95
2018-05-17T04:19:35.602Z,101045.69
2018-05-17T04:22:41.137Z,101049.52
2018-05-17T04:25:47.344Z,101055.25
2018-05-17T04:28:53.168Z,101049.27
2018-05-17T04:31:58.380Z,101052.02
2018-05-17T04:35:03.643Z,101048.24
2018-05-17T04:38:08.847Z,101053.27
2018-05-17T04:41:14.988Z,101050.95
2018-05-17T04:44:20.217Z,101050.33
2018-05-17T04:47:25.438Z,101045.09
2018-05-17T04:50:31.379Z,101037.73
2018-05-17T04:53:37.449Z,101041.02
2018-05-17T04:56:42.660Z,101037.44
2018-05-17T04:59:47.864Z,101033.99
2018-05-17T05:02:53.099Z,101044.63
2018-05-17T05:05:59.312Z,101034.62
2018-05-17T05:09:03.954Z,101040.55
2018-05-17T05:12:09.170Z,101039.97
2018-05-17T05:15:16.010Z,101032.11
2018-05-17T05:18:21.812Z,101038.77
2018-05-17T05:21:26.741Z,101039.91
2018-05-17T05:24:31.956Z,101044.41
2018-05-17T05:27:37.210Z,101038.16
2018-05-17T05:30:43.275Z,101041.39
2018-05-17T05:33:49.297Z,101059.56
2018-05-17T05:36:55.342Z,101050.69
2018-05-17T05:40:00.548Z,101051.30
2018-05-17T05:43:06.520Z,101050.25
2018-05-17T05:46:12.346Z,101057.91
2018-05-17T05:49:17.554Z,101064.13
2018-05-17T05:52:22.980Z,101061.34
2018-05-17T05:55:28.705Z,101068.59
2018-05-17T05:58:33.925Z,101072.75
2018-05-17T06:01:39.528Z,101071.84
2018-05-17T06:04:45.168Z,101071.49
2018-05-17T06:07:50.417Z,101066.61
2018-05-17T06:10:56.058Z,101081.95
2018-05-17T06:14:02.231Z,101079.53
2018-05-17T06:17:07.480Z,101077.64
2018-05-17T06:20:13.192Z,101080.92
2018-05-17T06:23:18.664Z,101077.34
2018-05-17T06:26:24.784Z,101080.66
2018-05-17T06:29:30.021Z,101086.88
2018-05-17T06:32:35.970Z,101080.67
2018-05-17T06:35:41.709Z,101086.91
2018-05-17T06:38:46.662Z,101081.55
2018-05-17T06:41:52.385Z,101089.86
2018-05-17T06:44:58.515Z,101087.05
2018-05-17T06:48:04.132Z,101084.52
2018-05-17T06:51:10.072Z,101093.32
2018-05-17T06:54:16.938Z,101096.47
2018-05-17T06:57:22.756Z,101088.48
2018-05-17T07:00:28.500Z,101095.13
2018-05-17T07:03:34.236Z,101093.16
2018-05-17T07:06:41.287Z,101098.13
2018-05-17T07:09:47.110Z,101098.31
2018-05-17T07:12:52.804Z,101096.59
2018-05-17T07:15:58.926Z,101094.75
2018-05-17T07:19:04.134Z,101096.23
2018-05-17T07:22:10.258Z,101101.16
2018-05-17T07:25:15.888Z,101108.21
2018-05-17T07:28:21.606Z,101103.18
2018-05-17T07:31:27.587Z,101097.86
2018-05-17T07:34:32.981Z,101100.52
2018-05-17T07:37:38.731Z,101107.61
2018-05-17T07:40:43.988Z,101104.28
2018-05-17T07:43:49.172Z,101104.30
2018-05-17T07:46:54.852Z,101113.80
2018-05-17T07:50:00.869Z,101110.78
2018-05-17T07:53:06.615Z,101114.81
2018-05-17T07:56:12.377Z,101116.70
2018-05-17T07:59:18.499Z,101117.34
2018-05-17T08:02:24.645Z,101115.33
2018-05-17T08:05:30.729Z,101124.00
2018-05-17T08:08:36.848Z,101122.03
2018-05-17T08:11:42.780Z,101119.94
2018-05-17T08:14:48.877Z,101126.88
2018-05-17T08:17:55.060Z,101112.67
2018-05-17T08:21:01.404Z,101120.86
2018-05-17T08:24:06.608Z,101115.22
2018-05-17T08:27:11.834Z,101116.44
2018-05-17T08:30:17.234Z,101116.38
2018-05-17T08:33:23.376Z,101119.83
2018-05-17T08:36:28.680Z,101120.13
2018-05-17T08:39:34.013Z,101124.30
2018-05-17T08:42:40.995Z,101130.70
2018-05-17T08:45:46.920Z,101134.06
2018-05-17T08:48:52.646Z,101132.19
2018-05-17T08:51:58.286Z,101134.55
2018-05-17T08:55:04.373Z,101136.92
2018-05-17T08:58:10.509Z,101135.72
2018-05-17T09:01:16.643Z,101145.19
2018-05-17T09:04:22.685Z,101145.91
2018-05-17T09:07:28.813Z,101142.45
2018-05-17T09:10:34.832Z,101146.32
2018-05-17T09:13:41.073Z,101152.93
2018-05-17T09:16:46.458Z,101151.78
2018-05-17T09:19:52.184Z,101149.37
2018-05-17T09:22:58.317Z,101158.50
2018-05-17T09:26:04.108Z,101160.77
2018-05-17T09:29:09.345Z,101160.00
2018-05-17T09:32:15.589Z,101151.71
2018-05-17T09:35:21.524Z,101152.76
2018-05-17T09:38:26.809Z,101152.16
2018-05-17T09:41:32.071Z,101156.59
2018-05-17T09:44:38.348Z,101162.23
2018-05-17T09:47:44.686Z,101160.94
2018-05-17T09:50:50.899Z,101172.52
2018-05-17T09:53:57.959Z,101152.83
2018-05-17T09:57:03.338Z,101167.77
2018-05-17T10:00:09.244Z,101163.83
2018-05-17T10:03:14.453Z,101171.83
2018-05-17T10:06:19.660Z,101165.48
2018-05-17T10:09:24.882Z,101159.84
2018-05-17T10:12:30.018Z,101155.83
2018-05-17T10:15:36.129Z,101155.42
2018-05-17T10:18:42.251Z,101153.92
2018-05-17T10:21:49.219Z,101152.83
2018-05-17T10:24:54.481Z,101157.19
2018-05-17T10:27:59.724Z,101152.22
2018-05-17T10:31:06.684Z,101152.77
2018-05-17T10:34:14.411Z,101162.63
2018-05-17T10:37:19.622Z,101162.78
2018-05-17T10:40:24.845Z,101160.50
2018-05-17T10:43:30.062Z,101161.02
2018-05-17T10:46:35.263Z,101163.27
2018-05-17T10:49:40.506Z,101160.25
2018-05-17T10:52:45.704Z,101165.16
2018-05-17T10:55:50.920Z,101162.80
2018-05-17T10:58:56.128Z,101152.05
2018-05-17T11:02:01.761Z,101167.17
2018-05-17T11:05:07.880Z,101161.27
2018-05-17T11:08:14.997Z,101166.38
2018-05-17T11:11:20.201Z,101177.49
2018-05-17T11:14:26.212Z,101176.08
2018-05-17T11:17:31.432Z,101170.00
2018-05-17T11:20:37.164Z,101169.58
2018-05-17T11:23:42.393Z,101174.19
2018-05-17T11:26:47.600Z,101169.47
2018-05-17T11:29:53.752Z,101174.19
2018-05-17T11:32:59.026Z,101173.13
2018-05-17T11:36:04.399Z,101184.48
2018-05-17T11:39:09.277Z,101179.45
2018-05-17T11:42:14.914Z,101172.48
2018-05-17T11:45:21.047Z,101175.44
2018-05-17T11:48:27.061Z,101165.98
2018-05-17T11:51:33.114Z,101166.39
2018-05-17T11:54:38.748Z,101163.44
2018-05-17T11:57:43.684Z,101171.77
2018-05-17T12:00:49.753Z,101166.03
2018-05-17T12:03:55.602Z,101172.01
2018-05-17T12:07:00.828Z,101167.93
2018-05-17T12:10:06.273Z,101170.13
2018-05-17T12:13:11.476Z,101166.91
2018-05-17T12:16:16.688Z,101172.81
2018-05-17T12:19:22.344Z,101177.13
2018-05-17T12:22:28.221Z,101180.73
2018-05-17T12:25:33.881Z,101180.09
2018-05-17T12:28:39.088Z,101178.20
2018-05-17T12:31:45.319Z,101184.50
2018-05-17T12:34:51.292Z,101180.13
2018-05-17T12:37:57.864Z,101181.31
2018-05-17T12:41:04.421Z,101180.02
2018-05-17T12:44:09.633Z,101182.20
2018-05-17T12:47:15.654Z,101183.58
2018-05-17T12:50:20.859Z,101190.48
2018-05-17T12:53:26.912Z,101183.16
2018-05-17T12:56:32.936Z,101189.42
2018-05-17T12:59:39.103Z,101187.38
2018-05-17T13:02:45.235Z,101189.14
2018-05-17T13:05:50.658Z,101195.01
2018-05-17T13:08:55.872Z,101197.25
2018-05-17T13:12:01.898Z,101198.00
2018-05-17T13:15:07.524Z,101194.34
2018-05-17T13:18:13.558Z,101185.08
2018-05-17T13:21:19.499Z,101189.09
2018-05-17T13:24:24.728Z,101190.20
2018-05-17T13:27:30.852Z,101183.95
2018-05-17T13:30:37.509Z,101186.42
2018-05-17T13:33:43.121Z,101190.08
2018-05-17T13:36:49.082Z,101190.03
2018-05-17T13:39:55.021Z,101185.47
2018-05-17T13:43:00.236Z,101188.05
2018-05-17T13:46:06.314Z,101186.94
2018-05-17T13:49:12.165Z,101185.28
2018-05-17T13:52:18.166Z,101182.94
2018-05-17T13:55:24.263Z,101187.03
2018-05-17T13:58:30.208Z,101183.76
2018-05-17T14:01:35.422Z,101182.05
2018-05-17T14:04:41.174Z,101173.41
2018-05-17T14:07:46.818Z,101174.23
2018-05-17T14:10:52.861Z,101176.50
2018-05-17T14:13:58.070Z,101173.71
2018-05-17T14:17:03.286Z,101169.41
2018-05-17T14:20:09.046Z,101178.54
2018-05-17T14:23:14.291Z,101177.09
2018-05-17T14:26:19.681Z,101182.54
2018-05-17T14:29:26.388Z,101182.54
2018-05-17T14:32:31.577Z,101175.35
2018-05-17T14:35:36.793Z,101185.75
2018-05-17T14:38:42.937Z,101177.99
2018-05-17T14:41:48.333Z,101183.09
2018-05-17T14:44:54.458Z,101185.50
2018-05-17T14:48:00.576Z,101180.20
2018-05-17T14:51:07.449Z,101184.38
2018-05-17T14:54:13.753Z,101176.42
2018-05-17T14:57:19.391Z,101177.42
2018-05-17T15:00:25.540Z,101176.33
2018-05-17T15:03:31.569Z,101175.45
2018-05-17T15:06:37.696Z,101177.56
2018-05-17T15:09:43.724Z,101173.12
2018-05-17T15:12:48.928Z,101166.43
2018-05-17T15:15:54.562Z,101172.41
2018-05-17T15:18:59.761Z,101172.30
2018-05-17T15:22:04.632Z,101175.93
2018-05-17T15:25:11.212Z,101168.61
2018-05-17T15:28:17.067Z,101182.87
2018-05-17T15:31:23.911Z,101179.81
2018-05-17T15:34:29.138Z,101176.41
2018-05-17T15:37:34.340Z,101174.84
2018-05-17T15:40:39.765Z,101177.53
2018-05-17T15:43:44.966Z,101177.84
2018-05-17T15:46:50.177Z,101168.70
2018-05-17T15:49:55.794Z,101167.52
2018-05-17T15:53:02.546Z,101176.20
2018-05-17T15:56:08.469Z,101175.23
2018-05-17T15:59:14.090Z,101178.39
2018-05-17T16:02:20.782Z,101182.27
2018-05-17T16:05:26.163Z,101178.44
2018-05-17T16:08:30.862Z,101171.00
2018-05-17T16:11:35.980Z,101172.91
2018-05-17T16:14:40.979Z,101171.33
2018-05-17T16:17:46.949Z,101171.48
2018-05-17T16:20:52.913Z,101174.97
2018-05-17T16:23:58.431Z,101165.63
2018-05-17T16:27:04.429Z,101170.85
2018-05-17T16:30:10.266Z,101166.67
2018-05-17T16:33:16.472Z,101167.67
2018-05-17T16:36:21.721Z,101170.05
2018-05-17T16:39:29.757Z,101168.55
2018-05-17T16:42:38.391Z,101161.67
2018-05-17T16:45:45.312Z,101164.50
2018-05-17T16:48:51.552Z,101156.79
2018-05-17T16:51:56.532Z,101159.67
2018-05-17T16:55:02.521Z,101156.88
2018-05-17T16:58:07.759Z,101155.72
2018-05-17T17:01:14.152Z,101158.49
2018-05-17T17:04:19.396Z,101149.74
2018-05-17T17:07:28.110Z,101157.64
2018-05-17T17:10:34.253Z,101160.55
2018-05-17T17:13:40.746Z,101153.72
2018-05-17T17:16:48.216Z,101156.52
2018-05-17T17:19:54.229Z,101158.13
2018-05-17T17:23:01.112Z,101149.73
2018-05-17T17:26:06.936Z,101160.34
2018-05-17T17:29:13.809Z,101149.59
2018-05-17T17:32:19.019Z,101156.56
2018-05-17T17:35:25.161Z,101156.38
2018-05-17T17:38:30.888Z,101155.37
2018-05-17T17:41:36.134Z,101154.55
2018-05-17T17:44:41.987Z,101159.85
2018-05-17T17:47:47.221Z,101159.13
2018-05-17T17:50:52.904Z,101153.92
2018-05-17T17:53:58.721Z,101169.05
2018-05-17T17:57:03.725Z,101166.09
2018-05-17T18:00:08.962Z,101173.98
2018-05-17T18:03:14.189Z,101178.05
2018-05-17T18:06:20.041Z,101186.95
2018-05-17T18:09:26.387Z,101181.56
2018-05-17T18:12:33.065Z,101185.16
2018-05-17T18:15:38.268Z,101192.46
2018-05-17T18:21:48.172Z,101193.94
2018-05-17T18:24:54.023Z,101190.79
2018-05-17T18:28:00.128Z,101200.72
2018-05-17T18:31:05.579Z,101201.25
2018-05-17T18:34:10.808Z,101203.00
2018-05-17T18:37:16.012Z,101199.72
2018-05-17T18:40:22.032Z,101203.28
2018-05-17T18:43:27.859Z,101210.96
2018-05-17T18:46:34.267Z,101210.24
2018-05-17T18:49:40.185Z,101207.88
2018-05-17T18:52:45.410Z,101205.11
2018-05-17T18:55:51.869Z,101212.74
2018-05-17T18:58:56.905Z,101213.53
2018-05-17T19:02:02.121Z,101216.80
2018-05-17T19:05:08.086Z,101215.12
2018-05-17T19:08:13.296Z,101208.11
2018-05-17T19:11:19.133Z,101211.78
2018-05-17T19:14:24.899Z,101215.09
2018-05-17T19:17:30.341Z,101217.72
2018-05-17T19:20:35.544Z,101210.84
2018-05-17T19:23:41.392Z,101217.05
2018-05-17T19:26:47.123Z,101209.73
2018-05-17T19:29:52.356Z,101212.27
2018-05-17T19:32:58.433Z,101209.77
2018-05-17T19:36:03.643Z,101207.77
2018-05-17T19:39:09.805Z,101225.98
2018-05-17T19:42:16.433Z,101225.09
2018-05-17T19:45:21.899Z,101229.67
2018-05-17T19:48:27.919Z,101232.68
2018-05-17T19:51:33.686Z,101236.38
2018-05-17T19:54:39.431Z,101238.13
2018-05-17T19:57:44.662Z,101236.01
2018-05-17T20:00:50.856Z,101235.84
2018-05-17T20:03:56.147Z,101240.13
2018-05-17T20:07:01.948Z,101236.31
2018-05-17T20:10:07.187Z,101236.06
2018-05-17T20:13:13.498Z,101234.06
2018-05-17T20:16:20.557Z,101238.39
2018-05-17T20:19:25.768Z,101239.77
2018-05-17T20:22:31.853Z,101245.98
2018-05-17T20:25:37.092Z,101243.44
2018-05-17T20:28:42.310Z,101244.44
2018-05-17T20:31:47.545Z,101239.90
2018-05-17T20:34:52.755Z,101239.73
2018-05-17T20:37:58.822Z,101245.30
2018-05-17T20:41:03.803Z,101248.80
2018-05-17T20:44:09.832Z,101245.17
2018-05-17T20:47:15.549Z,101245.05
2018-05-17T20:50:20.760Z,101239.81
2018-05-17T20:53:26.908Z,101240.19
2018-05-17T20:56:33.030Z,101239.31
2018-05-17T20:59:38.341Z,101239.44
2018-05-17T21:02:44.274Z,101235.76
2018-05-17T21:05:50.400Z,101235.94
2018-05-17T21:08:56.037Z,101236.72
2018-05-17T21:12:02.156Z,101236.59
2018-05-17T21:15:07.459Z,101237.80
2018-05-17T21:18:12.662Z,101237.47
2018-05-17T21:21:18.577Z,101232.68
2018-05-17T21:24:24.518Z,101241.25
2018-05-17T21:27:29.735Z,101240.84
2018-05-17T21:30:34.957Z,101248.54
2018-05-17T21:33:40.156Z,101242.22
2018-05-17T21:36:45.398Z,101248.62
2018-05-17T21:39:50.601Z,101243.84
2018-05-17T21:42:56.788Z,101237.38
2018-05-17T21:46:02.426Z,101234.56
2018-05-17T21:49:07.638Z,101236.22
2018-05-17T21:52:13.391Z,101240.69
2018-05-17T21:55:19.120Z,101235.13
2018-05-17T21:58:24.864Z,101239.38
2018-05-17T22:01:31.314Z,101234.97
2018-05-17T22:04:36.949Z,101240.63
2018-05-17T22:07:42.800Z,101241.62
2018-05-17T22:10:48.936Z,101239.55
2018-05-17T22:13:54.242Z,101236.26
2018-05-17T22:17:00.093Z,101234.65
2018-05-17T22:20:05.310Z,101236.48
2018-05-17T22:23:10.524Z,101231.06
2018-05-17T22:26:16.650Z,101232.68
2018-05-17T22:29:22.801Z,101227.89
2018-05-17T22:32:28.419Z,101227.02
2018-05-17T22:35:34.428Z,101225.48
2018-05-17T22:38:40.548Z,101221.08
2018-05-17T22:41:45.452Z,101220.08
2018-05-17T22:44:50.660Z,101226.81
2018-05-17T22:47:56.557Z,101220.28
2018-05-17T22:51:02.181Z,101218.03
2018-05-17T22:54:07.112Z,101210.41
2018-05-17T22:57:13.477Z,101213.78
2018-05-17T23:00:18.930Z,101213.83
2018-05-17T23:03:24.529Z,101212.99
2018-05-17T23:06:29.695Z,101214.74
2018-05-17T23:09:35.100Z,101217.80
2018-05-17T23:12:40.547Z,101222.95
2018-05-17T23:15:46.565Z,101217.83
2018-05-17T23:18:51.776Z,101214.84
2018-05-17T23:21:56.718Z,101213.59
2018-05-17T23:25:01.931Z,101207.31
2018-05-17T23:28:07.354Z,101217.64
2018-05-17T23:31:12.564Z,101215.56
2018-05-17T23:34:17.970Z,101218.52
2018-05-17T23:37:23.763Z,101212.80
2018-05-17T23:44:03.316Z,101218.62
2018-05-17T23:47:09.329Z,101215.94
2018-05-17T23:50:16.256Z,101216.22
2018-05-17T23:53:22.075Z,101211.84
2018-05-17T23:56:28.237Z,101215.69
2018-05-17T23:59:33.455Z,101207.81
